createdAt,value
2023-07-21T00:12:14.495Z,1006.59
2023-07-21T00:13:15.978Z,1006.53
2023-07-21T00:15:30.990Z,1006.55
2023-07-21T00:16:31.027Z,1006.54
2023-07-21T00:17:31.155Z,1006.56
2023-07-21T00:24:14.235Z,1006.55
2023-07-21T00:25:13.788Z,1006.52
2023-07-21T00:39:12.774Z,1006.47
2023-07-21T01:04:31.286Z,1006.41
2023-07-21T01:10:00.194Z,1006.44
2023-07-21T01:15:05.993Z,1006.37
2023-07-21T01:25:52.999Z,1006.26
2023-07-21T01:31:35.273Z,1006.29
2023-07-21T01:32:35.527Z,1006.26
2023-07-21T01:33:35.348Z,1006.27
2023-07-21T01:34:35.365Z,1006.22
2023-07-21T01:35:35.390Z,1006.29
2023-07-21T01:36:35.424Z,1006.23
2023-07-21T01:37:35.445Z,1006.23
2023-07-21T01:38:35.474Z,1006.16
2023-07-21T01:39:35.547Z,1006.15
2023-07-21T01:40:35.536Z,1006.13
2023-07-21T01:41:35.613Z,1006.11
2023-07-21T01:42:35.607Z,1006.10
2023-07-21T01:44:36.869Z,1006.12
2023-07-21T01:47:48.693Z,1006.09
2023-07-21T01:49:48.596Z,1006.03
2023-07-21T01:53:48.498Z,1006.00
2023-07-21T01:58:43.120Z,1005.91
2023-07-21T02:00:51.190Z,1005.94
2023-07-21T02:07:08.664Z,1005.89
2023-07-21T02:08:08.693Z,1005.96
2023-07-21T02:09:08.723Z,1005.97
2023-07-21T02:10:08.748Z,1005.97
2023-07-21T03:11:55.838Z,1005.86
2023-07-21T03:23:21.898Z,1005.73
2023-07-21T03:27:22.018Z,1005.58
2023-07-21T03:53:36.273Z,1005.81
2023-07-21T03:54:27.179Z,1005.84
2023-07-21T03:55:24.635Z,1005.83
2023-07-21T03:57:24.670Z,1005.81
2023-07-21T03:59:24.608Z,1005.73
2023-07-21T04:01:24.669Z,1005.79
2023-07-21T04:07:24.728Z,1005.80
2023-07-21T04:34:26.506Z,1005.50
2023-07-21T05:13:29.603Z,1005.72
2023-07-21T05:19:26.794Z,1005.67
2023-07-21T05:20:28.142Z,1005.66
2023-07-21T05:21:26.852Z,1005.63
2023-07-21T05:22:26.904Z,1005.64
2023-07-21T05:23:26.925Z,1005.65
2023-07-21T05:24:27.306Z,1005.65
2023-07-21T05:25:26.983Z,1005.69
2023-07-21T05:26:27.239Z,1005.70
2023-07-21T05:27:27.346Z,1005.74
2023-07-21T05:38:27.382Z,1005.78
2023-07-21T05:40:27.410Z,1005.78
2023-07-21T05:41:27.759Z,1005.80
2023-07-21T05:42:27.481Z,1005.80
2023-07-21T05:44:27.564Z,1005.85
2023-07-21T05:46:27.939Z,1005.86
2023-07-21T05:47:27.657Z,1005.83
2023-07-21T05:48:28.067Z,1005.88
2023-07-21T05:49:28.192Z,1005.84
2023-07-21T06:08:28.277Z,1005.72
2023-07-21T06:16:28.710Z,1005.76
2023-07-21T06:18:28.545Z,1005.76
2023-07-21T06:21:30.179Z,1005.80
2023-07-21T06:32:06.877Z,1005.76
2023-07-21T06:35:06.949Z,1005.81
2023-07-21T06:36:07.584Z,1005.76
2023-07-21T06:39:10.101Z,1005.83
2023-07-21T06:41:09.754Z,1005.82
2023-07-21T06:42:07.168Z,1005.78
2023-07-21T06:43:07.199Z,1005.83
2023-07-21T06:44:07.231Z,1005.77
2023-07-21T06:45:07.272Z,1005.77
2023-07-21T06:46:08.532Z,1005.72
2023-07-21T06:47:07.320Z,1005.69
2023-07-21T06:48:07.551Z,1005.60
2023-07-21T06:49:11.020Z,1005.56
2023-07-21T06:50:07.421Z,1005.57
2023-07-21T06:51:07.447Z,1005.56
2023-07-21T06:52:07.489Z,1005.49
2023-07-21T06:53:07.834Z,1005.55
2023-07-21T06:54:07.544Z,1005.50
2023-07-21T06:55:07.592Z,1005.54
2023-07-21T06:56:07.617Z,1005.49
2023-07-21T06:57:07.643Z,1005.56
2023-07-21T06:58:07.682Z,1005.51
2023-07-21T06:59:07.728Z,1005.47
2023-07-21T07:00:07.744Z,1005.43
2023-07-21T07:01:07.972Z,1005.47
2023-07-21T07:02:07.845Z,1005.48
2023-07-21T07:03:08.510Z,1005.46
2023-07-21T07:04:07.944Z,1005.48
2023-07-21T07:05:07.912Z,1005.47
2023-07-21T07:06:07.929Z,1005.50
2023-07-21T07:07:07.963Z,1005.48
2023-07-21T07:08:07.996Z,1005.48
2023-07-21T07:09:08.231Z,1005.45
2023-07-21T07:10:08.062Z,1005.49
2023-07-21T07:11:08.293Z,1005.51
2023-07-21T07:12:08.125Z,1005.47
2023-07-21T07:13:08.156Z,1005.49
2023-07-21T07:14:08.505Z,1005.46
2023-07-21T07:15:08.230Z,1005.49
2023-07-21T07:16:08.297Z,1005.46
2023-07-21T07:17:08.304Z,1005.43
2023-07-21T07:18:08.376Z,1005.44
2023-07-21T07:20:08.398Z,1005.47
2023-07-21T07:21:08.421Z,1005.46
2023-07-21T07:23:08.693Z,1005.53
2023-07-21T07:24:08.744Z,1005.50
2023-07-21T07:34:10.046Z,1005.44
2023-07-21T07:35:09.068Z,1005.46
2023-07-21T07:39:10.884Z,1005.42
2023-07-21T07:49:09.316Z,1005.50
2023-07-21T07:50:09.661Z,1005.60
2023-07-21T07:51:09.768Z,1005.62
2023-07-21T07:53:09.448Z,1005.51
2023-07-21T07:54:09.472Z,1005.53
2023-07-21T07:55:09.519Z,1005.61
2023-07-21T07:56:09.529Z,1005.59
2023-07-21T07:57:09.561Z,1005.64
2023-07-21T07:58:09.593Z,1005.60
2023-07-21T07:59:09.629Z,1005.60
2023-07-21T08:00:09.664Z,1005.59
2023-07-21T08:01:09.729Z,1005.59
2023-07-21T08:02:09.787Z,1005.62
2023-07-21T08:03:09.841Z,1005.63
2023-07-21T08:04:09.893Z,1005.50
2023-07-21T08:05:09.851Z,1005.43
2023-07-21T08:06:09.895Z,1005.45
2023-07-21T08:07:09.902Z,1005.46
2023-07-21T08:08:13.777Z,1005.42
2023-07-21T08:09:09.971Z,1005.47
2023-07-21T08:10:10.022Z,1005.54
2023-07-21T08:11:10.061Z,1005.51
2023-07-21T08:12:10.072Z,1005.45
2023-07-21T08:13:10.106Z,1005.42
2023-07-21T08:14:10.138Z,1005.41
2023-07-21T08:15:10.175Z,1005.41
2023-07-21T08:16:10.340Z,1005.41
2023-07-21T08:17:10.363Z,1005.36
2023-07-21T08:18:10.314Z,1005.46
2023-07-21T08:19:10.332Z,1005.46
2023-07-21T08:20:10.346Z,1005.48
2023-07-21T08:21:10.376Z,1005.45
2023-07-21T08:22:10.423Z,1005.46
2023-07-21T08:23:23.207Z,1005.49
2023-07-21T08:24:10.523Z,1005.54
2023-07-21T08:25:10.514Z,1005.56
2023-07-21T08:26:10.550Z,1005.58
2023-07-21T08:27:13.271Z,1005.52
2023-07-21T08:28:10.611Z,1005.55
2023-07-21T08:29:10.648Z,1005.54
2023-07-21T08:30:10.695Z,1005.58
2023-07-21T08:31:10.760Z,1005.53
2023-07-21T08:32:10.813Z,1005.53
2023-07-21T08:33:10.839Z,1005.54
2023-07-21T08:34:10.824Z,1005.52
2023-07-21T08:35:10.860Z,1005.51
2023-07-21T08:36:10.886Z,1005.52
2023-07-21T08:37:10.957Z,1005.51
2023-07-21T08:38:10.966Z,1005.48
2023-07-21T08:39:10.989Z,1005.49
2023-07-21T08:40:11.040Z,1005.47
2023-07-21T08:41:11.060Z,1005.47
2023-07-21T08:42:11.099Z,1005.47
2023-07-21T08:43:11.159Z,1005.44
2023-07-21T08:44:11.157Z,1005.44
2023-07-21T08:45:13.199Z,1005.41
2023-07-21T08:46:11.296Z,1005.42
2023-07-21T08:47:11.258Z,1005.40
2023-07-21T08:48:11.294Z,1005.45
2023-07-21T08:49:11.333Z,1005.39
2023-07-21T08:50:11.361Z,1005.45
2023-07-21T08:51:11.394Z,1005.40
2023-07-21T08:52:11.434Z,1005.40
2023-07-21T08:53:14.200Z,1005.44
2023-07-21T08:54:11.502Z,1005.45
2023-07-21T08:55:11.536Z,1005.40
2023-07-21T08:56:11.575Z,1005.38
2023-07-21T08:57:11.598Z,1005.36
2023-07-21T08:58:11.625Z,1005.36
2023-07-21T08:59:11.995Z,1005.33
2023-07-21T09:00:12.021Z,1005.34
2023-07-21T09:01:11.770Z,1005.33
2023-07-21T09:02:11.765Z,1005.31
2023-07-21T09:03:11.942Z,1005.30
2023-07-21T09:04:11.868Z,1005.26
2023-07-21T09:05:11.903Z,1005.23
2023-07-21T09:06:11.897Z,1005.27
2023-07-21T09:07:11.932Z,1005.28
2023-07-21T09:08:11.979Z,1005.33
2023-07-21T09:09:12.000Z,1005.33
2023-07-21T09:10:12.040Z,1005.34
2023-07-21T09:11:12.064Z,1005.38
2023-07-21T09:12:12.106Z,1005.32
2023-07-21T09:13:12.146Z,1005.32
2023-07-21T09:14:12.163Z,1005.29
2023-07-21T09:15:12.226Z,1005.27
2023-07-21T09:16:12.356Z,1005.28
2023-07-21T09:17:12.264Z,1005.24
2023-07-21T09:18:12.298Z,1005.27
2023-07-21T09:19:12.339Z,1005.29
2023-07-21T09:20:12.369Z,1005.31
2023-07-21T09:21:12.413Z,1005.49
2023-07-21T09:22:12.437Z,1005.56
2023-07-21T09:23:12.465Z,1005.46
2023-07-21T09:24:12.525Z,1005.39
2023-07-21T09:25:12.532Z,1005.40
2023-07-21T09:26:12.564Z,1005.46
2023-07-21T09:27:12.614Z,1005.38
2023-07-21T09:28:12.628Z,1005.43
2023-07-21T09:29:13.084Z,1005.45
2023-07-21T09:30:13.411Z,1005.40
2023-07-21T09:31:13.970Z,1005.40
2023-07-21T09:32:13.772Z,1005.40
2023-07-21T09:35:38.686Z,1005.41
2023-07-21T10:44:31.249Z,1005.09
2023-07-21T10:45:31.461Z,1005.08
2023-07-21T10:46:31.625Z,1005.08
2023-07-21T10:47:31.416Z,1005.09
2023-07-21T10:48:31.418Z,1005.02
2023-07-21T10:49:31.399Z,1005.04
2023-07-21T10:50:31.431Z,1005.00
2023-07-21T10:51:31.675Z,1005.02
2023-07-21T10:52:32.005Z,1004.99
2023-07-21T10:53:31.541Z,1005.02
2023-07-21T10:54:31.566Z,1004.95
2023-07-21T10:55:31.615Z,1004.89
2023-07-21T10:56:31.634Z,1005.08
2023-07-21T10:57:32.183Z,1005.05
2023-07-21T10:59:31.730Z,1004.97
2023-07-21T11:00:31.837Z,1004.88
2023-07-21T11:01:31.868Z,1004.95
2023-07-21T11:02:31.908Z,1004.95
2023-07-21T11:03:31.983Z,1004.96
2023-07-21T11:04:31.903Z,1004.94
2023-07-21T11:05:31.936Z,1004.92
2023-07-21T11:06:31.972Z,1004.95
2023-07-21T11:07:31.990Z,1004.95
2023-07-21T11:08:32.024Z,1004.97
2023-07-21T11:09:32.057Z,1004.95
2023-07-21T11:10:32.095Z,1004.94
2023-07-21T11:11:32.123Z,1004.98
2023-07-21T11:12:32.160Z,1004.98
2023-07-21T11:13:32.200Z,1005.00
2023-07-21T11:14:32.223Z,1005.03
2023-07-21T11:15:32.269Z,1005.03
2023-07-21T11:16:32.360Z,1005.02
2023-07-21T11:17:32.373Z,1005.02
2023-07-21T11:18:32.385Z,1004.99
2023-07-21T11:19:32.415Z,1004.99
2023-07-21T11:20:32.421Z,1004.96
2023-07-21T11:21:32.455Z,1004.89
2023-07-21T11:22:32.491Z,1004.96
2023-07-21T11:23:32.520Z,1004.94
2023-07-21T11:24:32.860Z,1004.91
2023-07-21T11:25:32.584Z,1004.93
2023-07-21T11:26:32.621Z,1004.94
2023-07-21T11:27:32.662Z,1004.91
2023-07-21T11:28:32.697Z,1004.93
2023-07-21T11:29:32.714Z,1005.02
2023-07-21T11:30:32.754Z,1004.97
2023-07-21T11:31:32.815Z,1004.95
2023-07-21T11:32:33.150Z,1004.93
2023-07-21T11:33:32.849Z,1004.86
2023-07-21T11:34:32.897Z,1004.84
2023-07-21T11:35:32.935Z,1004.93
2023-07-21T11:36:32.946Z,1004.93
2023-07-21T11:37:33.181Z,1004.92
2023-07-21T11:38:33.013Z,1004.89
2023-07-21T11:39:33.045Z,1004.91
2023-07-21T11:40:33.092Z,1004.87
2023-07-21T11:41:33.109Z,1004.83
2023-07-21T11:42:33.150Z,1004.87
2023-07-21T11:43:33.189Z,1004.84
2023-07-21T11:44:33.250Z,1004.79
2023-07-21T11:45:33.240Z,1004.77
2023-07-21T11:46:33.311Z,1004.77
2023-07-21T11:47:33.350Z,1004.76
2023-07-21T11:48:33.360Z,1004.80
2023-07-21T11:49:33.371Z,1004.79
2023-07-21T11:50:33.611Z,1004.80
2023-07-21T11:51:33.437Z,1004.76
2023-07-21T11:52:33.671Z,1004.79
2023-07-21T11:53:33.511Z,1004.77
2023-07-21T11:54:33.687Z,1004.82
2023-07-21T11:55:33.567Z,1004.84
2023-07-21T11:56:33.601Z,1004.90
2023-07-21T11:57:33.631Z,1004.89
2023-07-21T11:58:33.672Z,1004.91
2023-07-21T11:59:33.698Z,1004.91
2023-07-21T12:00:33.725Z,1004.96
2023-07-21T12:01:33.779Z,1004.96
2023-07-21T12:02:33.862Z,1004.89
2023-07-21T12:03:33.963Z,1004.81
2023-07-21T12:04:33.901Z,1004.80
2023-07-21T12:05:33.895Z,1004.77
2023-07-21T12:06:33.918Z,1004.82
2023-07-21T12:07:33.962Z,1004.85
2023-07-21T12:08:33.988Z,1004.77
2023-07-21T12:09:34.072Z,1004.74
2023-07-21T12:10:34.056Z,1004.77
2023-07-21T12:11:34.291Z,1004.71
2023-07-21T12:12:34.121Z,1004.76
2023-07-21T12:13:34.160Z,1004.77
2023-07-21T12:14:34.185Z,1004.79
2023-07-21T12:15:34.230Z,1004.75
2023-07-21T12:16:34.475Z,1004.79
2023-07-21T12:17:34.311Z,1004.78
2023-07-21T12:18:34.334Z,1004.76
2023-07-21T12:19:34.340Z,1004.77
2023-07-21T12:20:34.413Z,1004.81
2023-07-21T12:21:41.283Z,1004.80
2023-07-21T12:22:34.447Z,1004.81
2023-07-21T12:23:34.678Z,1004.81
2023-07-21T12:24:34.570Z,1004.82
2023-07-21T12:25:34.538Z,1004.82
2023-07-21T12:26:34.577Z,1004.82
2023-07-21T12:27:34.818Z,1004.84
2023-07-21T12:28:34.805Z,1004.85
2023-07-21T12:29:44.982Z,1004.86
2023-07-21T12:30:35.341Z,1004.84
2023-07-21T12:31:35.142Z,1004.85
2023-07-21T12:32:34.908Z,1004.87
2023-07-21T12:33:34.887Z,1004.88
2023-07-21T12:34:34.937Z,1004.85
2023-07-21T12:35:34.869Z,1004.82
2023-07-21T12:36:34.950Z,1004.89
2023-07-21T12:37:34.951Z,1004.85
2023-07-21T12:38:34.980Z,1004.87
2023-07-21T12:39:35.015Z,1004.86
2023-07-21T12:40:35.048Z,1004.89
2023-07-21T12:41:35.076Z,1004.87
2023-07-21T12:42:35.106Z,1004.90
2023-07-21T12:43:35.151Z,1004.88
2023-07-21T12:44:35.160Z,1004.96
2023-07-21T12:45:35.220Z,1004.96
2023-07-21T12:46:35.254Z,1005.00
2023-07-21T12:47:35.264Z,1005.07
2023-07-21T12:48:35.301Z,1004.86
2023-07-21T12:49:35.339Z,1004.85
2023-07-21T12:50:35.359Z,1004.95
2023-07-21T12:51:35.591Z,1005.07
2023-07-21T12:52:35.452Z,1005.04
2023-07-21T12:53:35.453Z,1005.03
2023-07-21T12:54:35.697Z,1005.03
2023-07-21T12:55:35.531Z,1004.94
2023-07-21T12:56:35.551Z,1004.81
2023-07-21T12:57:35.581Z,1004.94
2023-07-21T12:58:35.617Z,1004.82
2023-07-21T12:59:35.658Z,1004.78
2023-07-21T13:00:35.695Z,1004.76
2023-07-21T13:01:35.851Z,1004.79
2023-07-21T13:02:35.906Z,1004.79
2023-07-21T13:03:35.911Z,1004.76
2023-07-21T13:04:36.126Z,1004.77
2023-07-21T13:05:49.879Z,1004.74
2023-07-21T13:06:36.902Z,1004.77
2023-07-21T13:07:35.916Z,1004.86
2023-07-21T13:08:35.982Z,1004.89
2023-07-21T13:09:35.974Z,1004.99
2023-07-21T13:10:36.014Z,1004.99
2023-07-21T13:11:36.040Z,1004.96
2023-07-21T13:12:36.073Z,1004.97
2023-07-21T13:13:36.106Z,1004.80
2023-07-21T13:14:36.157Z,1004.75
2023-07-21T13:15:36.171Z,1004.66
2023-07-21T13:16:36.342Z,1004.72
2023-07-21T13:17:36.276Z,1004.72
2023-07-21T13:18:36.306Z,1004.71
2023-07-21T13:19:36.316Z,1004.73
2023-07-21T13:20:36.350Z,1004.71
2023-07-21T13:21:36.369Z,1004.73
2023-07-21T13:22:36.402Z,1004.73
2023-07-21T13:23:36.446Z,1004.74
2023-07-21T13:24:36.581Z,1004.79
2023-07-21T13:25:36.496Z,1004.73
2023-07-21T13:26:36.532Z,1004.75
2023-07-21T13:27:36.565Z,1004.87
2023-07-21T13:28:36.617Z,1004.83
2023-07-21T13:29:36.643Z,1004.78
2023-07-21T13:30:36.685Z,1004.72
2023-07-21T13:31:36.744Z,1004.80
2023-07-21T13:32:36.984Z,1004.84
2023-07-21T13:33:36.966Z,1004.91
2023-07-21T13:34:36.801Z,1004.85
2023-07-21T13:35:36.848Z,1004.88
2023-07-21T13:36:36.891Z,1004.81
2023-07-21T13:38:36.932Z,1004.57
2023-07-21T13:42:37.094Z,1004.38
2023-07-21T13:43:37.288Z,1004.52
2023-07-21T13:49:37.480Z,1005.03
2023-07-21T13:51:37.339Z,1005.04
2023-07-21T13:52:37.359Z,1005.04
2023-07-21T13:53:38.322Z,1005.06
2023-07-21T13:54:37.734Z,1005.09
2023-07-21T13:55:37.453Z,1005.13
2023-07-21T13:57:37.537Z,1005.11
2023-07-21T13:58:37.589Z,1005.29
2023-07-21T13:59:37.579Z,1005.25
2023-07-21T14:01:37.703Z,1005.19
2023-07-21T14:02:37.781Z,1005.15
2023-07-21T14:08:37.862Z,1005.09
2023-07-21T14:09:40.580Z,1005.15
2023-07-21T14:10:37.931Z,1005.20
2023-07-21T14:11:37.978Z,1005.20
2023-07-21T14:12:38.193Z,1005.24
2023-07-21T14:13:38.369Z,1005.20
2023-07-21T14:14:38.371Z,1005.23
2023-07-21T14:15:38.107Z,1005.14
2023-07-21T14:16:38.161Z,1005.21
2023-07-21T14:17:38.471Z,1005.34
2023-07-21T14:18:38.203Z,1005.30
2023-07-21T14:19:38.426Z,1005.37
2023-07-21T14:20:38.280Z,1005.36
2023-07-21T14:21:38.309Z,1005.32
2023-07-21T14:22:38.315Z,1005.42
2023-07-21T14:23:38.343Z,1005.39
2023-07-21T14:24:38.409Z,1005.40
2023-07-21T14:25:38.422Z,1005.37
2023-07-21T14:26:38.648Z,1005.32
2023-07-21T14:27:39.712Z,1005.36
2023-07-21T14:28:38.513Z,1005.33
2023-07-21T14:29:38.537Z,1005.30
2023-07-21T14:30:38.674Z,1005.27
2023-07-21T14:31:38.613Z,1005.32
2023-07-21T14:33:38.665Z,1005.31
2023-07-21T14:34:38.704Z,1005.38
2023-07-21T14:35:38.716Z,1005.45
2023-07-21T14:36:38.753Z,1005.37
2023-07-21T14:37:39.124Z,1005.38
2023-07-21T14:38:38.820Z,1005.37
2023-07-21T14:40:38.894Z,1005.33
2023-07-21T14:42:38.951Z,1005.32
2023-07-21T14:43:39.165Z,1005.38
2023-07-21T14:44:39.006Z,1005.36
2023-07-21T14:45:39.031Z,1005.31
2023-07-21T14:46:39.770Z,1005.31
2023-07-21T14:50:40.125Z,1005.47
2023-07-21T14:56:39.906Z,1005.46
2023-07-21T15:01:39.959Z,1005.42
2023-07-21T15:03:39.891Z,1005.40
2023-07-21T15:23:40.230Z,1005.82
2023-07-21T15:24:42.269Z,1005.76
2023-07-21T15:29:40.407Z,1005.74
2023-07-21T15:30:42.503Z,1005.74
2023-07-21T16:00:41.758Z,1005.99
2023-07-21T16:04:44.049Z,1006.04
2023-07-21T16:09:42.093Z,1006.13
2023-07-21T16:21:42.680Z,1006.19
2023-07-21T16:24:43.422Z,1006.16
2023-07-21T16:40:43.384Z,1006.19
2023-07-21T16:42:43.201Z,1006.27
2023-07-21T16:53:44.341Z,1006.22
2023-07-21T17:07:44.866Z,1006.22
2023-07-21T17:08:44.188Z,1006.25
2023-07-21T17:17:44.392Z,1006.23
2023-07-21T17:22:44.016Z,1006.21
2023-07-21T17:29:44.431Z,1006.31
2023-07-21T17:33:50.829Z,1006.33
2023-07-21T17:46:45.036Z,1006.39
2023-07-21T17:56:46.447Z,1006.54
2023-07-21T18:03:45.629Z,1006.55
2023-07-21T18:22:46.981Z,1006.78
2023-07-21T18:28:46.118Z,1006.69
2023-07-21T18:30:46.968Z,1006.71
2023-07-21T18:56:49.250Z,1006.86
2023-07-21T18:57:46.656Z,1006.90
2023-07-21T18:58:46.685Z,1006.95
2023-07-21T19:00:46.832Z,1006.89
2023-07-21T19:01:46.843Z,1006.90
2023-07-21T19:02:46.858Z,1006.89
2023-07-21T19:03:47.431Z,1006.92
2023-07-21T19:04:46.889Z,1006.92
2023-07-21T19:06:44.463Z,1006.89
2023-07-21T19:07:44.504Z,1006.93
2023-07-21T19:08:44.521Z,1006.94
2023-07-21T19:09:44.569Z,1006.92
2023-07-21T19:10:44.598Z,1006.96
2023-07-21T19:11:44.617Z,1006.94
2023-07-21T19:12:44.635Z,1006.95
2023-07-21T19:13:44.676Z,1006.91
2023-07-21T19:14:44.699Z,1006.92
2023-07-21T19:15:47.557Z,1006.95
2023-07-21T19:16:44.821Z,1006.95
2023-07-21T19:18:27.337Z,1006.96
2023-07-21T19:19:27.363Z,1006.97
2023-07-21T19:20:27.391Z,1006.96
2023-07-21T19:21:27.674Z,1007.03
2023-07-21T19:22:27.449Z,1007.01
2023-07-21T19:23:27.486Z,1007.01
2023-07-21T19:24:27.556Z,1007.12
2023-07-21T19:25:27.536Z,1007.11
2023-07-21T19:26:27.562Z,1007.17
2023-07-21T19:27:27.595Z,1007.22
2023-07-21T19:28:27.636Z,1007.17
2023-07-21T19:29:27.684Z,1007.24
2023-07-21T19:30:27.693Z,1007.23
2023-07-21T19:31:28.875Z,1007.26
2023-07-21T19:33:27.989Z,1007.27
2023-07-21T19:34:27.813Z,1007.36
2023-07-21T19:37:27.889Z,1007.36
2023-07-21T19:38:28.131Z,1007.40
2023-07-21T19:40:27.990Z,1007.41
2023-07-21T19:45:28.336Z,1007.58
2023-07-21T19:47:28.937Z,1007.57
2023-07-21T19:51:28.747Z,1007.65
2023-07-21T19:53:28.576Z,1007.64
2023-07-21T19:54:28.398Z,1007.63
2023-07-21T19:55:29.329Z,1007.65
2023-07-21T20:00:30.102Z,1007.72
2023-07-21T20:01:29.381Z,1007.72
2023-07-21T20:03:28.832Z,1007.71
2023-07-21T20:05:29.137Z,1007.74
2023-07-21T20:07:28.813Z,1007.75
2023-07-21T20:10:29.078Z,1007.84
2023-07-21T20:17:29.286Z,1007.87
2023-07-21T20:29:30.750Z,1007.96
2023-07-21T20:31:42.512Z,1007.97
2023-07-21T20:33:30.455Z,1008.01
2023-07-21T20:56:30.219Z,1008.28
2023-07-21T21:33:31.982Z,1008.56
2023-07-21T21:50:31.794Z,1008.68
2023-07-21T21:51:32.186Z,1008.72
2023-07-21T21:52:32.014Z,1008.75
2023-07-21T21:53:32.541Z,1008.73
2023-07-21T21:55:32.107Z,1008.81
2023-07-21T21:56:32.491Z,1008.84
2023-07-21T21:57:31.990Z,1008.82
2023-07-21T22:18:33.526Z,1008.88
2023-07-21T22:21:32.930Z,1008.91
2023-07-21T22:22:33.065Z,1008.86
2023-07-21T22:25:33.156Z,1008.91
2023-07-21T22:33:33.478Z,1008.98
2023-07-21T22:34:33.637Z,1008.99
2023-07-21T22:42:33.208Z,1008.98
2023-07-21T22:51:33.683Z,1009.09
2023-07-21T22:58:34.978Z,1009.07
2023-07-21T23:03:34.025Z,1009.08
2023-07-21T23:05:33.890Z,1009.17
2023-07-21T23:06:34.544Z,1009.16
2023-07-21T23:07:34.127Z,1009.17
2023-07-21T23:33:34.657Z,1009.12
2023-07-21T23:38:48.324Z,1009.07
